createdAt,value
2022-08-17T00:01:37.885Z,2.90
2022-08-17T00:04:20.683Z,2.90
2022-08-17T00:06:49.332Z,2.70
2022-08-17T00:09:18.258Z,3.00
2022-08-17T00:12:34.923Z,2.78
2022-08-17T00:14:36.101Z,2.78
2022-08-17T00:17:04.730Z,2.67
2022-08-17T00:19:32.949Z,3.10
2022-08-17T00:22:32.892Z,3.20
2022-08-17T00:24:50.224Z,3.08
2022-08-17T00:27:17.554Z,2.83
2022-08-17T00:29:45.881Z,3.10
2022-08-17T00:33:13.959Z,3.33
2022-08-17T00:35:08.300Z,2.92
2022-08-17T00:37:35.313Z,3.03
2022-08-17T00:40:03.070Z,2.90
2022-08-17T00:42:31.255Z,3.13
2022-08-17T00:44:59.976Z,3.20
2022-08-17T00:47:26.957Z,2.97
2022-08-17T00:49:54.117Z,3.22
2022-08-17T00:52:25.039Z,3.00
2022-08-17T00:54:55.147Z,2.85
2022-08-17T00:57:29.981Z,2.83
2022-08-17T01:00:09.613Z,3.25
2022-08-17T01:02:42.044Z,2.88
2022-08-17T01:05:19.560Z,3.38
2022-08-17T01:07:50.842Z,2.83
2022-08-17T01:10:57.405Z,2.83
2022-08-17T01:13:11.227Z,2.97
2022-08-17T01:15:41.408Z,3.30
2022-08-17T01:18:14.741Z,2.78
2022-08-17T01:20:48.423Z,3.28
2022-08-17T01:23:20.509Z,3.28
2022-08-17T01:25:54.364Z,2.90
2022-08-17T01:28:53.073Z,3.60
2022-08-17T01:31:12.508Z,2.95
2022-08-17T01:33:39.566Z,2.70
2022-08-17T01:36:08.291Z,2.80
2022-08-17T01:38:37.311Z,2.80
2022-08-17T01:41:10.620Z,3.10
2022-08-17T01:43:47.426Z,2.90
2022-08-17T01:46:24.227Z,3.08
2022-08-17T01:48:51.525Z,3.00
2022-08-17T01:51:19.162Z,2.90
2022-08-17T01:53:57.441Z,2.70
2022-08-17T01:56:25.693Z,3.03
2022-08-17T01:58:52.961Z,3.25
2022-08-17T02:01:23.090Z,2.90
2022-08-17T02:03:53.327Z,2.90
2022-08-17T02:06:30.278Z,3.08
2022-08-17T02:09:02.435Z,3.10
2022-08-17T02:14:33.408Z,3.28
2022-08-17T02:17:00.525Z,3.25
2022-08-17T02:19:27.408Z,3.08
2022-08-17T02:21:54.707Z,3.42
2022-08-17T02:24:59.568Z,3.17
2022-08-17T02:27:16.406Z,3.33
2022-08-17T02:29:43.304Z,3.13
2022-08-17T02:32:20.987Z,3.20
2022-08-17T02:34:56.708Z,3.42
2022-08-17T02:37:24.265Z,3.47
2022-08-17T02:39:51.307Z,3.53
2022-08-17T02:42:18.477Z,3.65
2022-08-17T02:44:45.542Z,3.80
2022-08-17T02:47:12.751Z,3.50
2022-08-17T02:49:39.713Z,3.40
2022-08-17T02:52:07.829Z,3.85
2022-08-17T02:54:39.974Z,3.50
2022-08-17T02:57:10.127Z,3.58
2022-08-17T02:59:46.788Z,3.85
2022-08-17T03:02:16.032Z,3.92
2022-08-17T03:04:42.912Z,3.53
2022-08-17T03:07:09.976Z,3.28
2022-08-17T03:09:36.842Z,3.95
2022-08-17T03:12:09.066Z,3.83
2022-08-17T03:14:41.910Z,3.58
2022-08-17T03:17:10.240Z,4.13
2022-08-17T03:19:41.575Z,4.15
2022-08-17T03:22:37.160Z,4.10
2022-08-17T03:24:58.214Z,4.20
2022-08-17T03:27:25.205Z,4.28
2022-08-17T03:29:52.253Z,4.20
2022-08-17T03:32:20.692Z,4.15
2022-08-17T03:34:48.008Z,4.40
2022-08-17T03:37:15.065Z,4.13
2022-08-17T03:39:42.825Z,4.32
2022-08-17T03:42:31.859Z,4.63
2022-08-17T03:45:00.688Z,4.30
2022-08-17T03:47:46.893Z,4.45
2022-08-17T03:50:33.736Z,4.25
2022-08-17T03:53:23.503Z,4.25
2022-08-17T03:56:09.514Z,4.53
2022-08-17T03:58:37.645Z,4.35
2022-08-17T04:01:07.865Z,4.10
2022-08-17T04:03:35.272Z,4.53
2022-08-17T04:06:02.329Z,4.30
2022-08-17T04:08:30.352Z,4.45
2022-08-17T04:10:57.857Z,4.90
2022-08-17T04:13:25.537Z,4.68
2022-08-17T04:15:52.792Z,4.60
2022-08-17T04:18:20.077Z,4.38
2022-08-17T04:20:47.110Z,4.90
2022-08-17T04:23:17.606Z,4.97
2022-08-17T04:25:49.347Z,4.50
2022-08-17T04:28:17.934Z,4.22
2022-08-17T04:30:46.773Z,4.50
2022-08-17T04:33:20.061Z,5.10
2022-08-17T04:35:53.968Z,4.80
2022-08-17T04:38:24.559Z,4.82
2022-08-17T04:41:11.007Z,4.25
2022-08-17T04:43:40.161Z,4.65
2022-08-17T04:46:09.751Z,4.43
2022-08-17T04:51:13.507Z,4.65
2022-08-17T04:53:44.439Z,4.68
2022-08-17T04:56:17.017Z,5.05
2022-08-17T04:58:47.987Z,4.47
2022-08-17T05:01:23.215Z,5.05
2022-08-17T05:03:52.919Z,5.10
2022-08-17T05:06:20.412Z,4.80
2022-08-17T05:08:47.485Z,4.85
2022-08-17T05:11:15.128Z,4.35
2022-08-17T05:13:42.602Z,4.50
2022-08-17T05:16:09.751Z,4.95
2022-08-17T05:18:38.867Z,4.88
2022-08-17T05:21:06.765Z,5.18
2022-08-17T05:23:42.777Z,4.68
2022-08-17T05:26:24.758Z,4.43
2022-08-17T05:28:59.425Z,4.70
2022-08-17T05:31:27.842Z,4.93
2022-08-17T05:33:54.681Z,5.28
2022-08-17T05:36:42.823Z,5.57
2022-08-17T05:39:08.998Z,5.10
2022-08-17T05:41:42.745Z,5.28
2022-08-17T05:44:09.867Z,6.18
2022-08-17T05:46:41.665Z,6.07
2022-08-17T05:49:11.200Z,5.95
2022-08-17T05:51:55.968Z,6.15
2022-08-17T05:54:51.666Z,5.78
2022-08-17T05:57:21.341Z,7.05
2022-08-17T05:59:57.549Z,7.43
2022-08-17T06:02:29.427Z,6.32
2022-08-17T06:05:25.873Z,6.07
2022-08-17T06:08:25.479Z,4.68
2022-08-17T06:11:02.624Z,4.85
2022-08-17T06:13:35.248Z,4.85
2022-08-17T06:16:33.740Z,4.00
2022-08-17T06:19:16.020Z,4.97
2022-08-17T06:21:47.623Z,4.63
2022-08-17T06:24:27.483Z,4.93
2022-08-17T06:27:01.533Z,4.55
2022-08-17T06:29:53.304Z,4.68
2022-08-17T06:32:20.534Z,4.72
2022-08-17T06:34:47.861Z,4.78
2022-08-17T06:37:42.476Z,4.47
2022-08-17T06:40:18.547Z,4.78
2022-08-17T06:43:00.902Z,4.80
2022-08-17T06:45:41.783Z,4.55
2022-08-17T06:48:11.743Z,5.15
2022-08-17T06:50:50.991Z,4.78
2022-08-17T06:53:45.574Z,4.30
2022-08-17T06:56:21.795Z,4.65
2022-08-17T06:58:49.558Z,5.13
2022-08-17T07:01:23.023Z,4.85
2022-08-17T07:04:06.410Z,4.45
2022-08-17T07:06:49.169Z,4.83
2022-08-17T07:09:28.232Z,4.57
2022-08-17T07:12:18.493Z,4.68
2022-08-17T07:14:58.336Z,4.55
2022-08-17T07:17:46.692Z,4.85
2022-08-17T07:20:22.638Z,4.22
2022-08-17T07:23:21.868Z,4.68
2022-08-17T07:25:50.090Z,4.85
2022-08-17T07:28:22.938Z,4.45
2022-08-17T07:30:54.385Z,5.40
2022-08-17T07:33:25.735Z,5.45
2022-08-17T07:35:53.206Z,5.43
2022-08-17T07:38:32.149Z,5.28
2022-08-17T07:41:06.151Z,4.90
2022-08-17T07:43:42.349Z,5.18
2022-08-17T07:46:46.673Z,4.40
2022-08-17T07:49:13.574Z,4.80
2022-08-17T07:51:43.747Z,5.78
2022-08-17T07:54:18.469Z,5.28
2022-08-17T07:56:54.633Z,5.22
2022-08-17T07:59:33.413Z,6.20
2022-08-17T08:02:02.303Z,5.03
2022-08-17T08:07:30.368Z,5.03
2022-08-17T08:10:11.773Z,4.93
2022-08-17T08:12:52.754Z,5.10
2022-08-17T08:15:25.657Z,5.22
2022-08-17T08:17:55.687Z,5.10
2022-08-17T08:20:52.985Z,4.60
2022-08-17T08:23:49.552Z,4.07
2022-08-17T08:26:53.960Z,4.60
2022-08-17T08:29:28.120Z,4.97
2022-08-17T08:32:21.909Z,5.05
2022-08-17T08:35:04.456Z,4.88
2022-08-17T08:38:08.573Z,5.53
2022-08-17T08:40:46.349Z,5.10
2022-08-17T08:43:36.239Z,4.93
2022-08-17T08:46:19.614Z,4.50
2022-08-17T08:49:17.501Z,4.78
2022-08-17T08:51:57.825Z,4.60
2022-08-17T08:54:34.423Z,4.65
2022-08-17T08:57:26.725Z,5.03
2022-08-17T09:00:07.708Z,4.38
2022-08-17T09:02:40.805Z,4.28
2022-08-17T09:05:27.106Z,4.50
2022-08-17T09:08:16.400Z,4.82
2022-08-17T09:14:05.507Z,4.68
2022-08-17T09:19:48.708Z,4.45
2022-08-17T09:22:24.100Z,4.28
2022-08-17T09:25:07.126Z,4.30
2022-08-17T09:27:47.982Z,4.43
2022-08-17T09:30:15.417Z,4.47
2022-08-17T09:32:55.300Z,4.10
2022-08-17T09:35:32.911Z,4.18
2022-08-17T09:38:32.326Z,3.97
2022-08-17T09:41:13.148Z,3.35
2022-08-17T09:43:58.145Z,3.90
2022-08-17T09:46:38.788Z,2.88
2022-08-17T09:49:11.771Z,2.67
2022-08-17T09:51:44.971Z,2.60
2022-08-17T09:54:38.725Z,2.72
2022-08-17T09:57:29.077Z,3.00
2022-08-17T10:00:18.849Z,2.63
2022-08-17T10:03:21.105Z,3.05
2022-08-17T10:05:56.271Z,2.83
2022-08-17T10:08:44.948Z,2.88
2022-08-17T10:11:14.800Z,3.15
2022-08-17T10:14:36.063Z,2.88
2022-08-17T10:17:28.138Z,2.53
2022-08-17T10:20:41.776Z,2.53
2022-08-17T10:23:56.737Z,2.97
2022-08-17T10:26:26.223Z,2.63
2022-08-17T10:28:59.330Z,2.70
2022-08-17T10:31:35.106Z,3.00
2022-08-17T10:34:38.862Z,2.60
2022-08-17T10:37:28.686Z,3.20
2022-08-17T10:40:28.184Z,2.83
2022-08-17T10:43:04.935Z,2.78
2022-08-17T10:46:10.556Z,3.17
2022-08-17T10:49:25.892Z,3.15
2022-08-17T10:52:02.036Z,2.83
2022-08-17T10:54:45.633Z,2.65
2022-08-17T10:57:43.700Z,3.40
2022-08-17T11:00:36.018Z,3.08
2022-08-17T11:03:23.559Z,3.40
2022-08-17T11:06:26.166Z,2.90
2022-08-17T11:09:03.209Z,2.95
2022-08-17T11:11:59.963Z,3.13
2022-08-17T11:14:49.189Z,3.92
2022-08-17T11:20:19.805Z,3.20
2022-08-17T11:23:10.116Z,3.20
2022-08-17T11:25:47.149Z,3.25
2022-08-17T11:28:18.039Z,3.20
2022-08-17T11:30:57.400Z,3.13
2022-08-17T11:33:36.716Z,3.10
2022-08-17T11:36:50.689Z,3.33
2022-08-17T11:39:42.179Z,3.20
2022-08-17T11:42:57.537Z,3.60
2022-08-17T11:45:33.792Z,3.22
2022-08-17T11:48:48.448Z,3.38
2022-08-17T11:51:33.723Z,3.95
2022-08-17T11:57:00.563Z,3.78
2022-08-17T12:02:01.870Z,3.42
2022-08-17T12:04:32.148Z,3.40
2022-08-17T12:07:20.517Z,3.85
2022-08-17T12:09:50.865Z,3.40
2022-08-17T12:12:23.332Z,3.28
2022-08-17T12:15:11.800Z,3.67
2022-08-17T12:17:42.662Z,3.47
2022-08-17T12:20:42.624Z,3.65
2022-08-17T12:23:33.876Z,3.63
2022-08-17T12:26:24.049Z,3.60
2022-08-17T12:28:57.436Z,3.45
2022-08-17T12:31:34.374Z,3.25
2022-08-17T12:34:03.322Z,3.42
2022-08-17T12:36:32.380Z,3.33
2022-08-17T12:39:13.682Z,3.22
2022-08-17T12:41:46.851Z,3.53
2022-08-17T12:44:18.518Z,3.85
2022-08-17T12:47:07.551Z,3.15
2022-08-17T12:52:02.699Z,3.00
2022-08-17T12:55:00.288Z,3.30
2022-08-17T12:57:27.404Z,3.78
2022-08-17T13:00:07.604Z,3.40
2022-08-17T13:02:48.714Z,2.78
2022-08-17T13:05:23.758Z,3.55
2022-08-17T13:07:53.119Z,3.33
2022-08-17T13:10:22.728Z,3.78
2022-08-17T13:12:51.085Z,3.28
2022-08-17T13:15:25.320Z,3.23
2022-08-17T13:17:58.225Z,3.15
2022-08-17T13:20:25.690Z,3.53
2022-08-17T13:22:55.998Z,3.80
2022-08-17T13:25:24.053Z,3.70
2022-08-17T13:27:53.135Z,3.20
2022-08-17T13:32:50.858Z,3.38
2022-08-17T13:35:39.548Z,3.63
2022-08-17T13:38:11.872Z,2.90
2022-08-17T13:40:41.731Z,3.03
2022-08-17T13:43:10.325Z,3.20
2022-08-17T13:45:45.524Z,3.33
2022-08-17T13:48:27.712Z,3.33
2022-08-17T13:50:54.604Z,3.70
2022-08-17T13:53:36.138Z,3.65
2022-08-17T13:56:38.579Z,3.70
2022-08-17T13:59:11.185Z,3.47
2022-08-17T14:01:53.349Z,3.40
2022-08-17T14:04:32.678Z,3.28
2022-08-17T14:07:08.933Z,3.20
2022-08-17T14:09:39.901Z,3.30
2022-08-17T14:12:20.103Z,3.60
2022-08-17T14:14:47.479Z,3.42
2022-08-17T14:17:14.510Z,3.42
2022-08-17T14:19:41.746Z,3.30
2022-08-17T14:22:18.829Z,3.13
2022-08-17T14:25:01.070Z,3.35
2022-08-17T14:27:31.754Z,3.40
2022-08-17T14:29:59.085Z,3.42
2022-08-17T14:32:29.188Z,3.05
2022-08-17T14:34:57.707Z,3.60
2022-08-17T14:37:28.014Z,3.60
2022-08-17T14:39:56.965Z,3.63
2022-08-17T14:42:26.324Z,3.25
2022-08-17T14:44:54.733Z,3.47
2022-08-17T14:47:21.789Z,3.53
2022-08-17T14:49:49.289Z,3.40
2022-08-17T14:52:21.724Z,3.28
2022-08-17T14:54:54.003Z,3.22
2022-08-17T14:57:33.587Z,3.28
2022-08-17T15:00:02.323Z,3.80
2022-08-17T15:02:30.848Z,3.58
2022-08-17T15:05:05.980Z,3.70
2022-08-17T15:07:33.221Z,2.90
2022-08-17T15:10:02.442Z,3.55
2022-08-17T15:12:33.545Z,3.50
2022-08-17T15:15:04.450Z,3.38
2022-08-17T15:17:44.412Z,3.22
2022-08-17T15:20:15.817Z,3.30
2022-08-17T15:22:44.973Z,3.55
2022-08-17T15:27:40.379Z,3.10
2022-08-17T15:30:09.840Z,3.50
2022-08-17T15:32:39.257Z,3.65
2022-08-17T15:35:12.224Z,2.92
2022-08-17T15:37:40.267Z,3.15
2022-08-17T15:40:09.087Z,3.33
2022-08-17T15:45:10.736Z,3.37
2022-08-17T15:47:40.877Z,3.42
2022-08-17T15:50:09.648Z,3.42
2022-08-17T15:52:41.975Z,3.88
2022-08-17T15:55:14.665Z,3.70
2022-08-17T15:57:41.702Z,3.35
2022-08-17T16:00:10.143Z,3.63
2022-08-17T16:03:44.795Z,3.42
2022-08-17T16:05:30.138Z,3.35
2022-08-17T16:07:59.673Z,3.30
2022-08-17T16:10:34.831Z,3.10
2022-08-17T16:13:04.280Z,2.83
2022-08-17T16:15:32.115Z,2.88
2022-08-17T16:17:59.536Z,3.88
2022-08-17T16:20:26.961Z,3.25
2022-08-17T16:22:55.065Z,3.33
2022-08-17T16:25:52.392Z,3.60
2022-08-17T16:28:21.856Z,3.40
2022-08-17T16:30:49.055Z,3.47
2022-08-17T16:33:17.005Z,3.17
2022-08-17T16:36:14.116Z,3.22
2022-08-17T16:38:53.389Z,2.70
2022-08-17T16:41:56.392Z,2.95
2022-08-17T16:44:54.899Z,3.35
2022-08-17T16:47:26.554Z,3.03
2022-08-17T16:50:03.637Z,2.80
2022-08-17T16:52:36.598Z,3.03
2022-08-17T16:55:13.128Z,2.92
2022-08-17T16:57:51.209Z,2.63
2022-08-17T17:00:20.943Z,2.80
2022-08-17T17:02:53.818Z,3.03
2022-08-17T17:05:42.466Z,3.00
2022-08-17T17:08:44.861Z,3.28
2022-08-17T17:11:33.640Z,2.95
2022-08-17T17:14:09.204Z,2.70
2022-08-17T17:16:48.747Z,2.70
2022-08-17T17:19:37.233Z,2.90
2022-08-17T17:25:09.476Z,2.72
2022-08-17T17:27:58.903Z,3.00
2022-08-17T17:30:54.005Z,2.58
2022-08-17T17:33:48.848Z,3.00
2022-08-17T17:36:41.023Z,3.25
2022-08-17T17:39:31.876Z,2.60
2022-08-17T17:42:02.773Z,2.83
2022-08-17T17:44:38.168Z,3.20
2022-08-17T17:47:05.876Z,2.83
2022-08-17T17:49:41.572Z,2.67
2022-08-17T17:52:38.640Z,2.75
2022-08-17T17:55:37.548Z,3.05
2022-08-17T17:58:32.077Z,2.70
2022-08-17T18:01:18.057Z,2.97
2022-08-17T18:03:45.289Z,2.72
2022-08-17T18:06:34.418Z,2.97
2022-08-17T18:09:08.757Z,3.15
2022-08-17T18:11:41.394Z,3.60
2022-08-17T18:14:56.084Z,2.88
2022-08-17T18:17:23.661Z,2.92
2022-08-17T18:19:50.554Z,3.08
2022-08-17T18:22:22.456Z,3.08
2022-08-17T18:24:57.349Z,2.95
2022-08-17T18:27:38.089Z,3.00
2022-08-17T18:30:14.072Z,2.97
2022-08-17T18:32:43.723Z,2.90
2022-08-17T18:35:10.630Z,3.10
2022-08-17T18:37:42.726Z,3.20
2022-08-17T18:40:20.070Z,2.63
2022-08-17T18:42:56.620Z,3.20
2022-08-17T18:45:35.825Z,2.90
2022-08-17T18:50:46.142Z,3.13
2022-08-17T18:53:34.088Z,3.78
2022-08-17T18:59:21.153Z,2.95
2022-08-17T19:09:49.464Z,3.33
2022-08-17T19:12:53.542Z,3.33
2022-08-17T19:15:39.520Z,3.15
2022-08-17T19:18:58.225Z,3.55
2022-08-17T19:21:36.897Z,3.45
2022-08-17T19:24:31.939Z,3.10
2022-08-17T19:27:15.570Z,3.03
2022-08-17T19:29:53.808Z,3.30
2022-08-17T19:32:24.954Z,3.15
2022-08-17T19:34:52.327Z,3.13
2022-08-17T19:38:02.787Z,3.30
2022-08-17T19:40:53.228Z,3.58
2022-08-17T19:43:39.863Z,3.20
2022-08-17T19:46:19.214Z,3.15
2022-08-17T19:51:36.146Z,3.03
2022-08-17T19:54:18.404Z,3.38
2022-08-17T19:57:14.501Z,3.55
2022-08-17T20:00:22.023Z,2.95
2022-08-17T20:03:06.682Z,3.45
2022-08-17T20:06:12.131Z,3.30
2022-08-17T20:08:52.116Z,3.58
2022-08-17T20:11:26.274Z,3.22
2022-08-17T20:14:13.056Z,3.50
2022-08-17T20:16:40.468Z,3.22
2022-08-17T20:19:10.423Z,3.15
2022-08-17T20:21:58.197Z,3.10
2022-08-17T20:24:48.442Z,3.53
2022-08-17T20:27:21.593Z,3.78
2022-08-17T20:30:06.048Z,3.95
2022-08-17T20:32:55.963Z,3.30
2022-08-17T20:35:38.124Z,3.80
2022-08-17T20:38:33.719Z,3.60
2022-08-17T20:41:01.409Z,4.20
2022-08-17T20:43:59.024Z,3.78
2022-08-17T20:46:56.790Z,3.42
2022-08-17T20:49:33.916Z,2.90
2022-08-17T20:52:13.661Z,3.65
2022-08-17T20:54:48.292Z,3.33
2022-08-17T20:57:36.496Z,3.40
2022-08-17T21:00:33.248Z,3.70
2022-08-17T21:03:22.020Z,3.22
2022-08-17T21:06:02.994Z,3.30
2022-08-17T21:09:16.632Z,3.60
2022-08-17T21:12:03.876Z,3.60
2022-08-17T21:14:39.102Z,3.70
2022-08-17T21:17:24.912Z,3.70
2022-08-17T21:20:25.574Z,3.55
2022-08-17T21:22:59.047Z,4.47
2022-08-17T21:26:09.592Z,4.32
2022-08-17T21:29:32.420Z,5.65
2022-08-17T21:32:03.632Z,5.28
2022-08-17T21:34:33.021Z,3.97
2022-08-17T21:37:18.815Z,3.90
2022-08-17T21:40:23.095Z,3.33
2022-08-17T21:42:55.101Z,3.60
2022-08-17T21:45:38.059Z,3.72
2022-08-17T21:48:13.936Z,3.40
2022-08-17T21:50:43.841Z,3.72
2022-08-17T21:53:43.577Z,3.70
2022-08-17T21:56:19.511Z,3.50
2022-08-17T21:58:54.549Z,3.58
2022-08-17T22:01:30.629Z,4.05
2022-08-17T22:04:16.820Z,3.13
2022-08-17T22:06:55.830Z,3.33
2022-08-17T22:09:32.975Z,3.72
2022-08-17T22:12:02.439Z,3.40
2022-08-17T22:18:10.574Z,3.50
2022-08-17T22:20:42.022Z,3.47
2022-08-17T22:23:32.390Z,3.10
2022-08-17T22:26:09.704Z,3.42
2022-08-17T22:28:59.382Z,3.75
2022-08-17T22:31:30.004Z,3.35
2022-08-17T22:33:59.952Z,4.00
2022-08-17T22:36:38.807Z,3.53
2022-08-17T22:39:09.158Z,3.50
2022-08-17T22:41:49.406Z,3.90
2022-08-17T22:44:19.761Z,3.60
2022-08-17T22:47:14.537Z,3.50
2022-08-17T22:49:57.811Z,4.10
2022-08-17T22:53:00.675Z,3.28
2022-08-17T22:55:50.223Z,3.40
2022-08-17T22:58:40.553Z,3.40
2022-08-17T23:01:39.192Z,3.67
2022-08-17T23:04:30.974Z,3.22
2022-08-17T23:06:57.932Z,3.40
2022-08-17T23:09:24.807Z,3.70
2022-08-17T23:11:58.680Z,3.83
2022-08-17T23:14:31.642Z,4.05
2022-08-17T23:16:59.525Z,3.42
2022-08-17T23:19:28.056Z,4.00
2022-08-17T23:21:56.657Z,3.60
2022-08-17T23:24:27.264Z,3.40
2022-08-17T23:26:57.352Z,3.53
2022-08-17T23:29:26.533Z,3.70
2022-08-17T23:31:53.672Z,3.70
2022-08-17T23:34:20.962Z,4.40
2022-08-17T23:36:52.940Z,3.55
2022-08-17T23:39:27.767Z,3.20
2022-08-17T23:42:00.445Z,3.85
2022-08-17T23:44:28.840Z,3.60
2022-08-17T23:46:56.044Z,3.65
2022-08-17T23:49:25.238Z,3.53
2022-08-17T23:51:54.727Z,3.38
2022-08-17T23:54:48.681Z,3.53
2022-08-17T23:57:19.793Z,3.50
